Date,TemperatureHighF,TemperatureAvgF,TemperatureLowF,DewpointHighF,DewpointAvgF,DewpointLowF,HumidityHigh,HumidityAvg,HumidityLow,PressureMaxIn,PressureMinIn,WindSpeedMaxMPH,WindSpeedAvgMPH,GustSpeedMaxMPH,PrecipitationSumIn
2013-1-1,50,41,32,29,24,19,78,53,37,30.19,30.16,9,1,9,0.00
2013-1-2,53,41,35,30,25,20,63,52,36,30.18,30.09,5,1,5,0.00
2013-1-3,51,42,34,32,27,23,65,57,41,30.20,30.10,7,1,7,0.00
2013-1-4,53,42,36,36,28,24,64,58,46,30.20,30.14,5,1,5,0.00
2013-1-5,50,44,40,37,35,34,79,72,56,30.12,30.02,5,0,5,0.00
2013-1-6,50,43,36,44,38,32,86,82,78,30.11,30.03,2,1,4,0.00
2013-1-7,54,44,36,44,37,30,86,76,66,30.16,30.08,4,1,4,0.00
2013-1-8,57,49,42,47,42,37,86,77,68,30.16,30.07,3,0,3,0.00
2013-1-9,46,40,34,40,36,30,90,86,77,30.12,29.84,9,1,9,0.00
2013-1-10,41,34,29,35,29,26,90,83,71,30.03,29.89,6,0,6,0.00
2013-1-11,42,35,30,31,27,20,83,74,66,30.09,30.02,4,0,4,0.03
2013-1-12,42,31,25,24,20,16,71,62,45,30.11,30.04,6,0,6,0.01
2013-1-13,42,32,25,22,16,8,65,51,38,30.17,30.08,8,1,8,0.00
2013-1-14,48,38,29,23,19,8,59,45,33,30.30,30.17,7,1,7,0.00
2013-1-15,51,42,34,35,29,21,71,60,44,30.39,30.29,7,1,7,0.00
2013-1-16,66,54,48,38,25,17,43,33,21,30.37,30.23,8,1,8,0.00
2013-1-17,63,51,45,37,24,18,43,34,29,30.24,30.13,7,1,7,0.00
2013-1-18,61,48,39,32,23,17,44,38,25,30.21,30.13,6,1,6,0.00
2013-1-19,62,47,39,32,22,16,43,37,23,30.24,30.13,6,1,6,0.00
2013-1-20,62,48,38,32,24,18,45,40,28,30.20,30.09,5,1,5,0.00
2013-1-21,63,49,40,34,26,18,52,41,31,30.15,30.09,5,1,5,0.00
2013-1-22,62,49,41,37,28,21,50,44,30,30.12,29.99,6,1,6,0.00
2013-1-23,56,49,45,45,37,26,88,68,33,30.09,29.99,6,1,6,0.00
2013-1-24,55,51,47,48,46,43,86,82,78,30.14,30.06,2,0,2,0.00
2013-1-25,56,51,48,52,48,44,91,87,83,30.14,29.98,5,0,5,0.00
2013-1-26,49,46,41,47,43,38,93,89,87,29.99,29.89,6,1,6,0.00
2013-1-27,48,42,37,41,35,31,90,77,60,30.05,29.91,5,0,5,0.00
2013-1-28,49,44,37,37,34,31,79,68,60,30.17,30.04,5,1,5,0.00
2013-1-29,54,44,36,41,36,30,80,72,61,30.28,30.17,6,1,6,0.00
2013-1-30,61,50,42,47,39,35,75,67,56,30.28,30.21,3,1,3,0.00
2013-1-31,59,50,43,45,39,34,75,67,57,30.24,30.16,2,1,2,0.00
2013-2-1,62,51,41,43,37,30,67,59,45,30.19,30.12,4,1,4,0.00
2013-2-2,64,54,45,44,39,32,67,57,42,30.23,30.17,5,1,5,0.00
2013-2-3,61,49,41,45,37,31,69,63,53,30.17,30.07,4,1,4,0.00
2013-2-4,60,52,44,43,38,30,70,60,52,30.09,29.99,4,1,4,0.00
2013-2-5,55,46,40,44,37,30,82,71,63,30.07,29.95,7,1,7,0.00
2013-2-6,55,44,35,40,34,28,80,69,50,30.09,30.00,5,1,5,0.00
2013-2-7,43,40,36,38,36,33,90,85,74,30.04,29.90,9,1,9,0.00
2013-2-8,48,39,34,39,32,25,91,75,52,29.94,29.84,5,0,5,0.00
2013-2-9,52,42,33,30,27,24,70,56,39,30.02,29.90,6,1,6,0.00
2013-2-10,55,44,35,36,29,23,71,57,42,30.06,29.96,6,1,6,0.00
2013-2-11,57,42,34,34,26,22,64,54,40,30.14,30.06,6,1,6,0.00
2013-2-19,37,34,32,35,31,28,90,87,86,29.73,29.64,5,0,5,0.00
2013-2-20,50,40,32,36,31,28,86,69,54,29.95,29.73,7,0,7,0.00
2013-2-21,52,45,34,33,30,26,73,57,44,30.08,29.91,5,1,5,0.00
2013-2-22,57,50,39,38,35,27,67,57,46,30.14,30.07,8,1,8,0.00
2013-2-23,54,44,39,35,23,20,64,44,33,30.18,30.04,6,1,6,0.00
2013-2-24,39,37,36,22,20,20,52,50,48,30.18,30.15,3,0,3,0.00
2013-2-28,64,58,49,40,39,37,62,49,39,30.38,30.33,4,1,4,0.00
2013-3-1,69,56,44,46,41,34,68,58,44,30.38,30.23,2,1,2,0.00
2013-3-2,67,59,49,47,44,39,69,59,44,30.24,30.03,4,1,4,0.00
2013-3-3,54,53,53,47,47,46,78,78,78,30.01,30.01,2,2,2,0.00
2013-3-4,61,53,45,48,43,38,77,69,57,29.99,29.96,5,1,5,0.00
2013-3-5,54,48,40,41,38,32,88,69,46,29.95,29.73,12,2,12,0.00
2013-3-6,46,42,37,39,38,34,93,85,70,29.97,29.71,14,4,14,0.00
2013-3-7,48,42,37,36,33,32,84,72,61,29.94,29.83,1,0,1,0.00
2013-3-8,62,48,36,38,33,29,77,58,38,29.97,29.76,5,1,5,0.00
2013-3-9,64,51,39,40,32,25,71,51,31,30.27,29.95,4,1,4,0.00
2013-3-10,66,58,44,41,35,25,54,43,32,30.28,30.20,3,1,3,0.00
2013-3-11,69,56,44,44,36,28,63,49,37,30.22,30.07,2,1,2,0.00
2013-3-12,71,63,51,48,45,39,66,53,43,30.13,30.05,2,1,2,0.00
2013-3-13,76,61,48,51,44,38,72,55,35,30.16,30.08,4,1,4,0.00
2013-3-14,73,61,50,47,42,36,63,50,35,30.13,30.08,3,1,3,0.00
2013-3-15,70,62,52,49,43,38,58,51,42,30.09,30.05,2,1,2,0.00
2013-3-16,70,61,53,40,35,33,50,39,30,30.04,29.97,2,0,2,0.00
2013-3-17,68,55,42,40,32,27,57,44,28,30.07,30.00,3,1,3,0.00
2013-3-19,65,56,49,46,44,39,87,67,40,30.07,30.02,6,1,6,0.00
2013-3-20,50,48,46,48,46,43,93,91,87,30.04,29.97,7,2,7,0.00
2013-3-21,62,54,46,51,42,31,91,64,47,30.04,29.97,4,1,4,0.00
2013-3-22,60,51,41,31,28,25,57,42,29,30.05,29.97,4,1,4,0.00
2013-3-23,50,45,42,30,26,23,48,47,46,30.06,30.03,2,1,2,0.00
2013-3-24,69,57,44,41,35,29,64,44,31,30.04,29.95,3,1,3,0.00
2013-3-25,68,55,44,44,38,33,68,54,41,29.99,29.86,5,2,5,0.00
2013-3-26,64,57,49,45,42,36,72,56,46,29.94,29.89,6,1,6,0.00
2013-3-27,65,59,51,49,46,43,74,63,52,29.96,29.91,7,2,7,0.00
2013-3-28,59,54,50,48,45,43,79,72,59,30.06,29.94,6,2,6,0.00
2013-3-31,50,49,49,45,45,44,85,84,83,30.03,30.00,1,0,1,0.00
2013-4-1,56,53,49,49,47,44,84,80,77,30.11,29.98,3,1,3,0.00
2013-4-2,68,56,44,50,45,40,86,69,48,30.11,30.03,3,1,3,0.00
2013-4-3,71,58,48,54,48,40,78,68,53,30.10,29.98,3,1,3,0.00
2013-4-4,55,52,49,51,49,47,93,90,77,30.03,29.98,6,2,6,0.00
2013-4-5,59,55,50,51,48,46,91,76,65,30.10,30.03,6,1,7,0.00
2013-4-6,60,56,50,49,48,46,87,74,62,30.12,30.03,5,2,5,0.00
2013-4-7,57,52,45,50,46,42,87,79,71,30.07,29.71,8,2,8,0.00
2013-4-8,64,52,38,42,35,29,90,57,29,30.00,29.71,8,1,8,0.00
2013-4-9,71,61,46,42,36,30,59,40,26,30.12,29.98,9,1,9,0.00
2013-4-10,81,64,50,51,42,34,66,46,30,30.16,29.96,5,1,5,0.00
2013-4-11,75,66,58,43,39,34,55,38,29,29.96,29.83,5,1,5,0.00
2013-4-12,58,58,57,32,31,31,38,36,35,29.85,29.83,1,0,1,0.00
2013-4-17,52,52,50,26,25,24,37,36,34,30.20,30.20,2,0,2,0.00
2013-4-18,74,63,48,38,34,24,50,35,25,30.21,30.14,4,1,4,0.00
2013-4-19,75,61,50,48,40,35,64,47,33,30.20,30.04,2,1,2,0.00
2013-4-20,70,62,55,40,38,36,54,42,33,30.07,29.98,2,0,2,0.00
2013-4-21,82,70,56,42,40,34,45,34,23,30.02,29.96,3,1,3,0.00
2013-4-22,83,75,61,42,35,27,45,25,18,30.00,29.90,5,2,5,0.00
2013-4-23,80,66,54,38,28,18,40,25,16,29.97,29.85,4,1,4,0.00
2013-4-24,83,71,56,35,27,19,42,22,12,29.91,29.83,5,1,5,0.00
2013-4-25,76,68,58,46,40,19,56,37,18,30.08,29.88,3,1,3,0.00
2013-4-26,79,69,55,55,49,39,60,49,40,30.16,30.05,2,1,2,0.00
2013-4-27,84,69,55,57,48,39,64,49,34,30.18,30.06,3,1,3,0.00
2013-4-28,85,74,62,56,48,44,53,40,28,30.06,29.91,3,1,3,0.00
2013-4-29,85,74,62,49,46,41,47,38,25,29.94,29.78,3,1,3,0.00
2013-4-30,82,72,61,44,31,13,49,24,15,29.94,29.77,5,1,5,0.00
2013-5-1,82,68,54,27,20,13,24,17,13,30.15,29.93,5,2,5,0.00
2013-5-2,88,70,56,37,28,14,33,22,15,30.18,30.09,3,1,3,0.00
2013-5-3,88,76,60,46,37,27,37,25,18,30.09,29.83,3,1,3,0.00
2013-5-4,86,74,66,37,32,25,30,23,17,29.84,29.59,5,2,5,0.00
2013-5-5,70,64,58,48,41,32,60,44,30,29.81,29.57,4,1,4,0.00
2013-5-6,59,56,51,51,47,44,83,72,60,29.93,29.81,2,0,2,0.00
2013-5-7,59,55,48,52,49,42,83,79,76,30.02,29.93,2,0,2,0.00
2013-5-8,65,61,54,55,53,49,82,75,68,30.07,29.98,2,0,2,0.00
2013-6-4,71,70,70,55,55,54,59,58,57,29.91,29.90,1,0,1,0.00
2013-6-5,88,75,62,62,57,52,71,55,41,29.97,29.88,3,0,3,0.00
2013-6-6,92,77,64,66,59,52,69,55,39,29.93,29.85,2,1,2,0.00
2013-6-7,98,82,66,65,54,46,62,40,22,29.91,29.81,3,1,3,0.00
2013-6-8,107,91,75,60,55,50,46,31,18,29.82,29.74,5,1,5,0.00
2013-6-9,92,80,67,64,55,46,59,43,32,29.83,29.75,9,1,9,0.00
2013-6-10,67,62,56,55,52,50,83,71,59,29.95,29.78,7,1,7,0.00
2013-6-11,80,66,54,58,50,43,80,58,30,29.98,29.89,9,1,9,0.00
2013-6-12,83,69,57,56,46,38,71,47,25,29.95,29.89,7,1,7,0.00
2013-6-13,80,65,55,51,42,36,62,46,22,30.05,29.94,5,1,5,0.00
2013-6-14,88,78,60,44,39,32,39,26,18,30.00,29.84,4,1,4,0.00
2013-6-15,87,79,67,50,40,33,35,25,18,29.96,29.89,4,1,4,0.00
2013-6-16,85,76,62,48,42,36,41,31,22,30.02,29.95,6,1,6,0.00
2013-6-17,84,71,59,51,46,42,64,42,25,30.02,29.92,7,2,7,0.00
2013-6-18,71,67,60,53,46,42,60,48,37,29.95,29.86,5,2,5,0.00
2013-6-19,71,60,51,48,44,38,74,56,31,30.00,29.90,4,1,4,0.00
2013-6-20,81,65,52,48,42,37,64,45,28,29.99,29.92,4,1,4,0.00
2013-6-21,83,76,60,48,41,37,45,30,23,29.97,29.90,4,1,4,0.00
2013-6-22,89,73,60,48,41,35,49,33,22,29.94,29.83,3,1,3,0.00
2013-6-23,67,65,64,41,40,39,40,39,39,29.83,29.80,2,1,2,0.00
2013-6-29,99,89,76,61,56,52,44,34,25,29.94,29.87,4,1,4,0.00
2013-6-30,99,89,73,63,56,48,45,34,24,29.90,29.82,5,1,5,0.00
2013-7-1,100,83,70,67,57,49,60,42,27,29.92,29.84,2,0,2,0.00
2013-7-2,100,89,78,69,61,51,46,39,34,29.96,29.90,4,1,4,0.00
2013-7-3,103,87,76,69,60,55,53,42,26,29.96,29.81,6,1,6,0.00
2013-7-4,104,94,78,67,56,52,43,30,22,29.81,29.70,6,1,6,0.00
2013-7-5,91,82,70,60,55,49,59,41,28,29.76,29.70,8,1,8,0.00
2013-7-6,90,75,64,58,51,42,56,43,31,29.81,29.74,7,1,7,0.00
2013-7-7,92,77,64,56,49,41,51,38,25,29.86,29.79,8,1,8,0.00
2013-7-8,90,76,63,56,46,39,49,37,23,29.98,29.86,5,1,5,0.00
2013-7-9,94,85,68,54,45,37,39,25,16,30.05,29.98,6,1,6,0.00
2013-7-10,85,76,70,44,42,40,34,30,22,30.01,29.89,2,0,2,0.00
2013-7-11,89,77,68,54,42,33,37,29,17,29.91,29.86,3,1,3,0.00
2013-7-12,79,73,68,48,45,39,41,37,29,29.91,29.88,2,1,2,0.00
2013-7-13,91,83,67,51,45,40,42,28,22,29.98,29.91,4,1,4,0.00
2013-7-14,93,83,67,51,46,37,38,28,22,30.00,29.89,4,1,4,0.00
2013-7-15,72,70,69,44,44,43,41,39,38,29.91,29.90,1,1,1,0.00
2013-7-16,85,78,66,54,47,44,44,35,28,29.97,29.93,5,1,5,0.00
2013-7-17,90,75,62,54,46,40,45,37,25,30.06,29.97,3,1,3,0.00
2013-7-18,91,82,66,55,47,42,43,30,22,30.03,29.94,5,1,5,0.00
2013-7-19,94,82,70,57,53,46,48,38,27,29.94,29.84,3,1,3,0.00
2013-7-20,96,83,70,63,58,50,58,44,31,29.87,29.75,3,1,4,0.00
2013-7-21,98,83,72,68,60,54,63,47,30,29.86,29.77,6,1,6,0.00
2013-7-22,82,76,72,60,55,48,59,51,38,29.99,29.86,2,0,2,0.00
2013-7-23,90,83,71,58,55,50,52,40,31,29.99,29.95,5,1,5,0.00
2013-7-24,94,79,68,60,56,53,64,47,31,30.00,29.92,3,0,3,0.00
2013-7-25,96,83,71,65,59,54,62,46,33,30.00,29.93,4,1,4,0.00
2013-7-26,96,82,73,64,58,54,59,46,32,30.07,29.98,4,1,4,0.00
2013-7-27,76,75,74,56,55,54,50,50,49,30.01,30.00,1,0,1,0.00
2013-7-28,74,74,73,55,54,53,50,50,49,29.86,29.84,1,1,1,0.00
2013-8-3,89,75,62,54,45,41,51,37,23,29.97,29.91,5,1,5,0.00
2013-8-4,89,80,62,54,47,38,43,33,23,29.99,29.92,5,1,5,0.00
2013-8-5,63,63,63,38,38,38,41,41,41,29.97,29.97,0,0,0,0.00
2013-8-6,89,78,62,52,46,39,46,34,23,29.97,29.94,6,1,6,0.00
2013-8-7,81,72,59,57,50,46,63,47,39,30.04,29.97,5,1,5,0.00
2013-8-14,93,77,63,53,42,35,48,30,16,29.99,29.91,4,1,4,0.00
2013-8-15,70,70,69,38,38,38,33,32,31,29.94,29.93,1,0,1,0.00
2013-8-21,89,83,72,63,58,54,52,42,37,29.91,29.87,5,1,5,0.00
2013-8-22,88,76,67,58,50,45,59,42,25,29.94,29.86,6,1,6,0.00
2013-8-23,86,74,65,54,46,43,45,38,24,29.91,29.80,4,1,4,0.00
2013-8-24,85,75,64,52,48,42,48,38,31,29.86,29.82,8,1,8,0.00
2013-8-25,82,72,64,55,50,46,54,46,36,29.94,29.86,7,1,7,0.00
2013-8-26,83,71,61,58,51,47,69,52,31,29.98,29.91,4,1,4,0.00
2013-8-30,92,83,71,48,42,38,34,24,18,30.04,29.95,3,1,3,0.00
2013-8-31,70,69,69,40,39,39,34,34,34,29.99,29.98,2,1,2,0.00
2013-9-1,85,76,67,61,55,49,80,51,29,29.92,29.88,4,1,4,0.00
2013-9-2,69,68,68,59,59,59,72,71,71,29.91,29.90,2,2,2,0.00